Hauppauge, NY (11788)

4:27 PM EST on December 09, 2016 (GMT -0500)
Hauppauge | | Change Station

Elev 108 ft 40.82 °N, 73.21 °W | Updated 10 seconds ago

Mostly Cloudy
Mostly Cloudy
36.3 °F
Feels Like 33 °F
N
4.3
Wind Variable Wind from North
Gusts 7.4 mph

Today
High -- | Low -- °F
--% Chance of Precip.
Yesterday
High -- | Low -- °F
Precip. -- in
Pressure 30.12 in
Visibility 10.0 miles
Clouds Mostly Cloudy 6000 ft
Windchill 33 °F
Dew Point 7 °F
Humidity 29%
Rainfall 0.00 in
Snow Depth Not available.
7:05 AM 4:24 PM
Waxing Gibbous, 77% visible
METAR KISP 092056Z 31016G26KT 10SM BKN060 03/M10 A3011 RMK AO2 PK WND 30031/2045 SLP197 VIRGA NE-E T00281100 53021
Pressure 30.12 in
Visibility 10.0 miles
Clouds Mostly Cloudy 6000 ft
Windchill 33 °F
Dew Point 7 °F
Humidity 29%
Rainfall 0.00 in
Snow Depth Not available.
7:05 AM 4:24 PM
Waxing Gibbous, 77% visible
METAR KISP 092056Z 31016G26KT 10SM BKN060 03/M10 A3011 RMK AO2 PK WND 30031/2045 SLP197 VIRGA NE-E T00281100 53021

10-Day Weather Forecast

Almanac

Astronomy

Dec. 09, 2016 Rise Set
Actual Time
Civil Twilight
Nautical Twilight
Astronomical Twilight
Moon
Length of Visible Light
Length of Day
Tomorrow will be .
, % of the Moon is Illuminated

Today's Extremes

State Highs State Lows

Community

WunderPhotos

Upload Photos

1,956,517 photos uploaded!

WunderBlog® & News

Nearby

Air Quality

  Air Quality AQ Index Pollutant
Not available.

Snow Depth

Station Depth Elevation

Earthquake Activity

City Distance Mag. Time & Date
Minimum magnitude displayed is 2.5.

Coastal Water Temperatures

Place Temperature

Stations

Nearby Weather Stations

Station Location Temp. Windchill Dew Point Humidity Wind Precip. Elev Updated Type
                   

Watches & Warnings

There are currently no watches in effect.